^^
WesterhopeWX Station Historical Data
 
Daily Summary for October 17, 2019 Units:  Metric    English   Both
Daily Weekly Monthly Yearly Custom
  Current: High: Low: Average:
Temperature: 10.7 °C 10.7 °C 5.1 °C 6.3 °C
Dew Point: 7.4 °C 7.5 °C 3.7 °C 4.6 °C
Humidity: 80% 91% 80% 89%
Wind Speed: 3.2km/h 6.4km/h 0.0km/h 0.4km/h
Wind Gust: 6.4km/h 8.0km/h - -
WindSW - - SW
Pressure: 1000.6 hPa 1001.2 hPa 1000.2 hPa -
Precipitation: 0.0 mm      
Historical Graphs
 
 
Tabular Data for October 17, 2019
Time Temperature Dew Point Pressure Wind Wind Speed Wind Gust Humidity Rainfall Rate (Hourly) solar
00:00 6.5 °C 4.2 °C 1000.2 hPa Calm     85% 0.0 mm 0.00 W/m2
00:05 6.5 °C 4.2 °C 1000.2 hPa Calm     85% 0.0 mm 0.00 W/m2
00:10 6.4 °C 4.2 °C 1000.2 hPa Calm     86% 0.0 mm 0.00 W/m2
00:15 6.3 °C 4.1 °C 1000.2 hPa Calm     86% 0.0 mm 0.00 W/m2
00:20 6.2 °C 4.0 °C 1000.6 hPa Calm     86% 0.0 mm 0.00 W/m2
00:25 6.0 °C 3.8 °C 1000.6 hPa Calm     86% 0.0 mm 0.00 W/m2
00:30 6.0 °C 3.8 °C 1000.6 hPa Calm     86% 0.0 mm 0.00 W/m2
00:35 5.9 °C 3.7 °C 1000.6 hPa Calm     86% 0.0 mm 0.00 W/m2
00:40 5.8 °C 3.8 °C 1000.6 hPa Calm     87% 0.0 mm 0.00 W/m2
00:45 5.8 °C 3.8 °C 1000.6 hPa Calm     87% 0.0 mm 0.00 W/m2
00:50 5.8 °C 3.8 °C 1000.6 hPa Calm     87% 0.0 mm 0.00 W/m2
00:55 5.8 °C 3.8 °C 1000.6 hPa Calm     87% 0.0 mm 0.00 W/m2
01:00 5.8 °C 3.8 °C 1000.6 hPa Calm     87% 0.0 mm 0.00 W/m2
01:05 5.8 °C 4.0 °C 1000.6 hPa Calm     88% 0.0 mm 0.00 W/m2
01:10 5.9 °C 4.1 °C 1000.6 hPa Calm     88% 0.0 mm 0.00 W/m2
01:15 6.1 °C 4.3 °C 1000.6 hPa Calm     88% 0.0 mm 0.00 W/m2
01:20 6.0 °C 4.0 °C 1000.6 hPa Calm     87% 0.0 mm 0.00 W/m2
01:25 5.9 °C 3.9 °C 1000.6 hPa Calm     87% 0.0 mm 0.00 W/m2
01:30 5.9 °C 4.1 °C 1000.6 hPa Calm     88% 0.0 mm 0.00 W/m2
01:35 5.9 °C 4.1 °C 1000.6 hPa Calm     88% 0.0 mm 0.00 W/m2
01:40 5.9 °C 4.1 °C 1000.6 hPa Calm     88% 0.0 mm 0.00 W/m2
01:45 5.9 °C 3.9 °C 1000.6 hPa Calm     87% 0.0 mm 0.00 W/m2
01:50 5.9 °C 3.9 °C 1000.6 hPa Calm     87% 0.0 mm 0.00 W/m2
01:55 5.9 °C 3.9 °C 1000.6 hPa Calm     87% 0.0 mm 0.00 W/m2
02:00 5.8 °C 3.8 °C 1000.6 hPa Calm     87% 0.0 mm 0.00 W/m2
02:05 5.7 °C 3.7 °C 1000.6 hPa Calm     87% 0.0 mm 0.00 W/m2
02:10 5.7 °C 3.9 °C 1000.6 hPa Calm     88% 0.0 mm 0.00 W/m2
02:15 5.7 °C 3.9 °C 1000.6 hPa Calm     88% 0.0 mm 0.00 W/m2
02:20 5.8 °C 4.0 °C 1000.6 hPa Calm     88% 0.0 mm 0.00 W/m2
02:25 5.9 °C 4.1 °C 1000.6 hPa Calm   3.2 km/h 88% 0.0 mm 0.00 W/m2
02:30 6.1 °C 4.4 °C 1000.6 hPa Calm   1.6 km/h 89% 0.0 mm 0.00 W/m2
02:35 6.2 °C 4.5 °C 1000.6 hPa Calm   1.6 km/h 89% 0.0 mm 0.00 W/m2
02:40 6.2 °C 4.5 °C 1000.6 hPa Calm   1.6 km/h 89% 0.0 mm 0.00 W/m2
02:45 6.3 °C 4.5 °C 1000.6 hPa Calm     88% 0.0 mm 0.00 W/m2
02:50 6.2 °C 4.4 °C 1000.6 hPa Calm     88% 0.0 mm 0.00 W/m2
02:55 6.2 °C 4.4 °C 1000.6 hPa Calm     88% 0.0 mm 0.00 W/m2
03:00 6.2 °C 4.4 °C 1000.9 hPa Calm   1.6 km/h 88% 0.0 mm 0.00 W/m2
03:05 6.3 °C 4.5 °C 1000.6 hPa Calm     88% 0.0 mm 0.00 W/m2
03:10 6.2 °C 4.5 °C 1000.6 hPa Calm   3.2 km/h 89% 0.0 mm 0.00 W/m2
03:15 6.3 °C 4.6 °C 1000.6 hPa Calm   1.6 km/h 89% 0.0 mm 0.00 W/m2
03:20 6.2 °C 4.5 °C 1000.6 hPa Calm   1.6 km/h 89% 0.0 mm 0.00 W/m2
03:25 6.2 °C 4.5 °C 1000.6 hPa Calm   1.6 km/h 89% 0.0 mm 0.00 W/m2
03:30 6.2 °C 4.5 °C 1000.6 hPa Calm   3.2 km/h 89% 0.0 mm 0.00 W/m2
03:35 6.2 °C 4.5 °C 1000.6 hPa SW 1.4 km/h 1.6 km/h 89% 0.0 mm 0.00 W/m2
03:40 6.2 °C 4.5 °C 1000.6 hPa Calm   4.8 km/h 89% 0.0 mm 0.00 W/m2
03:45 6.2 °C 4.5 °C 1000.6 hPa SW 1.4 km/h 1.6 km/h 89% 0.0 mm 0.00 W/m2
03:50 6.2 °C 4.5 °C 1000.6 hPa Calm   1.6 km/h 89% 0.0 mm 0.00 W/m2
03:55 6.1 °C 4.4 °C 1000.6 hPa SW 1.4 km/h 1.6 km/h 89% 0.0 mm 0.00 W/m2
04:00 5.9 °C 4.2 °C 1000.6 hPa Calm     89% 0.0 mm 0.00 W/m2
04:05 5.9 °C 4.2 °C 1000.6 hPa Calm     89% 0.0 mm 0.00 W/m2
04:10 5.9 °C 4.2 °C 1000.6 hPa Calm     89% 0.0 mm 0.00 W/m2
04:15 6.1 °C 4.4 °C 1000.6 hPa Calm   1.6 km/h 89% 0.0 mm 0.00 W/m2
04:20 6.1 °C 4.6 °C 1000.9 hPa SW 1.4 km/h 3.2 km/h 90% 0.0 mm 0.00 W/m2
04:25 6.1 °C 4.6 °C 1000.6 hPa SW 1.4 km/h 3.2 km/h 90% 0.0 mm 0.00 W/m2
04:30 6.1 °C 4.6 °C 1000.6 hPa Calm   1.6 km/h 90% 0.0 mm 0.00 W/m2
04:35 6.1 °C 4.6 °C 1000.6 hPa Calm   1.6 km/h 90% 0.0 mm 0.00 W/m2
04:40 6.0 °C 4.3 °C 1000.6 hPa Calm     89% 0.0 mm 0.00 W/m2
04:45 5.9 °C 4.2 °C 1000.6 hPa Calm     89% 0.0 mm 0.00 W/m2
04:50 5.9 °C 4.4 °C 1000.6 hPa SW 3.2 km/h 3.2 km/h 90% 0.0 mm 0.00 W/m2
04:55 5.9 °C 4.4 °C 1000.6 hPa Calm   1.6 km/h 90% 0.0 mm 0.00 W/m2
05:00 5.9 °C 4.4 °C 1000.6 hPa Calm     90% 0.0 mm 0.00 W/m2
05:05 5.8 °C 4.3 °C 1000.6 hPa Calm   1.6 km/h 90% 0.0 mm 0.00 W/m2
05:10 5.8 °C 4.3 °C 1000.6 hPa Calm   1.6 km/h 90% 0.0 mm 0.00 W/m2
05:15 5.7 °C 4.2 °C 1000.6 hPa Calm   1.6 km/h 90% 0.0 mm 0.00 W/m2
05:20 5.6 °C 4.1 °C 1000.6 hPa Calm     90% 0.0 mm 0.00 W/m2
05:25 5.5 °C 4.0 °C 1000.6 hPa Calm   1.6 km/h 90% 0.0 mm 0.00 W/m2
05:30 5.5 °C 4.0 °C 1000.6 hPa Calm   3.2 km/h 90% 0.0 mm 0.00 W/m2
05:35 5.6 °C 4.1 °C 1000.6 hPa Calm   1.6 km/h 90% 0.0 mm 0.00 W/m2
05:40 5.7 °C 4.3 °C 1000.6 hPa Calm   3.2 km/h 91% 0.0 mm 0.00 W/m2
05:45 5.8 °C 4.3 °C 1000.6 hPa Calm   1.6 km/h 90% 0.0 mm 0.00 W/m2
05:50 5.8 °C 4.3 °C 1000.6 hPa SW 1.4 km/h 1.6 km/h 90% 0.0 mm 0.00 W/m2
05:55 5.7 °C 4.2 °C 1000.6 hPa SW 1.4 km/h 1.6 km/h 90% 0.0 mm 0.00 W/m2
06:00 5.7 °C 4.2 °C 1000.6 hPa Calm     90% 0.0 mm 0.00 W/m2
06:05 5.6 °C 4.1 °C 1000.6 hPa Calm     90% 0.0 mm 0.00 W/m2
06:10 5.4 °C 3.9 °C 1000.6 hPa Calm     90% 0.0 mm 0.00 W/m2
06:15 5.3 °C 3.8 °C 1000.6 hPa Calm     90% 0.0 mm 0.00 W/m2
06:20 5.3 °C 3.8 °C 1000.6 hPa Calm     90% 0.0 mm 0.00 W/m2
06:25 5.2 °C 3.7 °C 1000.6 hPa Calm     90% 0.0 mm 0.00 W/m2
06:30 5.3 °C 4.0 °C 1000.6 hPa SW 3.2 km/h 3.2 km/h 91% 0.0 mm 0.00 W/m2
06:35 5.3 °C 4.0 °C 1000.6 hPa Calm   3.2 km/h 91% 0.0 mm 0.00 W/m2
06:40 5.3 °C 4.0 °C 1000.6 hPa Calm   1.6 km/h 91% 0.0 mm 0.00 W/m2
06:45 5.3 °C 4.0 °C 1000.6 hPa SW 1.4 km/h 1.6 km/h 91% 0.0 mm 0.00 W/m2
06:50 5.3 °C 4.0 °C 1000.6 hPa Calm   1.6 km/h 91% 0.0 mm 0.00 W/m2
06:55 5.3 °C 4.0 °C 1000.6 hPa Calm     91% 0.0 mm 0.00 W/m2
07:00 5.3 °C 4.0 °C 1000.6 hPa Calm     91% 0.0 mm 0.00 W/m2
07:05 5.2 °C 3.9 °C 1000.6 hPa Calm     91% 0.0 mm 0.00 W/m2
07:10 5.2 °C 3.9 °C 1000.6 hPa SW 1.4 km/h 1.6 km/h 91% 0.0 mm 0.00 W/m2
07:15 5.2 °C 3.9 °C 1000.6 hPa Calm     91% 0.0 mm 0.00 W/m2
07:20 5.2 °C 3.9 °C 1000.6 hPa Calm     91% 0.0 mm 0.00 W/m2
07:25 5.2 °C 3.9 °C 1000.6 hPa Calm     91% 0.0 mm 0.00 W/m2
07:30 5.1 °C 3.8 °C 1000.6 hPa Calm   1.6 km/h 91% 0.0 mm 0.00 W/m2
07:35 5.2 °C 3.9 °C 1000.6 hPa Calm   1.6 km/h 91% 0.0 mm 0.00 W/m2
07:40 5.2 °C 3.9 °C 1000.6 hPa Calm   3.2 km/h 91% 0.0 mm 5.00 W/m2
07:45 5.2 °C 3.9 °C 1000.9 hPa Calm   1.6 km/h 91% 0.0 mm 5.00 W/m2
07:50 5.2 °C 3.9 °C 1000.9 hPa Calm     91% 0.0 mm 7.00 W/m2
07:55 5.2 °C 3.9 °C 1000.9 hPa SW 1.4 km/h 3.2 km/h 91% 0.0 mm 9.00 W/m2
08:00 5.4 °C 4.0 °C 1000.9 hPa SW 1.4 km/h 3.2 km/h 91% 0.0 mm 11.00 W/m2
08:05 5.5 °C 4.1 °C 1000.9 hPa Calm   1.6 km/h 91% 0.0 mm 12.00 W/m2
08:10 5.5 °C 4.1 °C 1000.9 hPa Calm   1.6 km/h 91% 0.0 mm 16.00 W/m2
08:15 5.5 °C 4.1 °C 1000.9 hPa SW 1.4 km/h 3.2 km/h 91% 0.0 mm 16.00 W/m2
08:20 5.5 °C 4.1 °C 1000.9 hPa SW 1.4 km/h 3.2 km/h 91% 0.0 mm 18.00 W/m2
08:25 5.5 °C 4.1 °C 1000.9 hPa SW 1.4 km/h 3.2 km/h 91% 0.0 mm 19.00 W/m2
08:30 5.5 °C 4.1 °C 1000.9 hPa Calm   1.6 km/h 91% 0.0 mm 21.00 W/m2
08:35 5.6 °C 4.2 °C 1000.9 hPa Calm   1.6 km/h 91% 0.0 mm 21.00 W/m2
08:40 5.6 °C 4.2 °C 1000.9 hPa Calm   1.6 km/h 91% 0.0 mm 23.00 W/m2
08:45 5.8 °C 4.4 °C 1000.9 hPa Calm   3.2 km/h 91% 0.0 mm 25.00 W/m2
08:50 5.9 °C 4.5 °C 1000.9 hPa SW 1.4 km/h 1.6 km/h 91% 0.0 mm 26.00 W/m2
08:55 6.0 °C 4.6 °C 1000.9 hPa Calm   3.2 km/h 91% 0.0 mm 28.00 W/m2
09:00 6.1 °C 4.6 °C 1000.9 hPa Calm     90% 0.0 mm 30.00 W/m2
09:05 6.2 °C 4.7 °C 1000.9 hPa Calm   1.6 km/h 90% 0.0 mm 32.00 W/m2
09:10 6.3 °C 4.8 °C 1000.9 hPa Calm     90% 0.0 mm 33.00 W/m2
09:15 6.4 °C 4.9 °C 1000.9 hPa Calm     90% 0.0 mm 33.00 W/m2
09:20 6.5 °C 5.0 °C 1000.9 hPa Calm     90% 0.0 mm 35.00 W/m2
09:25 6.6 °C 5.1 °C 1000.9 hPa Calm     90% 0.0 mm 35.00 W/m2
09:30 6.7 °C 5.2 °C 1001.2 hPa Calm     90% 0.0 mm 37.00 W/m2
09:35 6.8 °C 5.3 °C 1001.2 hPa SW 6.4 km/h 6.4 km/h 90% 0.0 mm 37.00 W/m2
09:40 6.9 °C 5.4 °C 1001.2 hPa Calm     90% 0.0 mm 137.00 W/m2
09:45 7.0 °C 5.5 °C 1001.2 hPa Calm   1.6 km/h 90% 0.0 mm 63.00 W/m2
09:50 7.1 °C 5.4 °C 1001.2 hPa Calm   3.2 km/h 89% 0.0 mm 44.00 W/m2
09:55 7.2 °C 5.5 °C 1001.2 hPa SW 1.4 km/h 3.2 km/h 89% 0.0 mm 40.00 W/m2
10:00 7.3 °C 5.6 °C 1001.2 hPa Calm   1.6 km/h 89% 0.0 mm 42.00 W/m2
10:05 7.4 °C 5.7 °C 1001.2 hPa SW 3.2 km/h 3.2 km/h 89% 0.0 mm 56.00 W/m2
10:10 7.6 °C 5.7 °C 1001.2 hPa Calm   3.2 km/h 88% 0.0 mm 69.00 W/m2
10:15 7.9 °C 5.9 °C 1000.9 hPa SW 1.4 km/h 1.6 km/h 87% 0.0 mm 195.00 W/m2
10:20 8.2 °C 6.2 °C 1000.9 hPa Calm   1.6 km/h 87% 0.0 mm 135.00 W/m2
10:25 8.3 °C 6.3 °C 1000.9 hPa Calm     87% 0.0 mm 44.00 W/m2
10:30 8.4 °C 6.4 °C 1000.9 hPa Calm     87% 0.0 mm 225.00 W/m2
10:35 8.6 °C 6.4 °C 1000.9 hPa Calm   3.2 km/h 86% 0.0 mm 214.00 W/m2
10:40 8.7 °C 6.5 °C 1000.9 hPa Calm   3.2 km/h 86% 0.0 mm 223.00 W/m2
10:45 8.9 °C 6.7 °C 1000.9 hPa Calm   1.6 km/h 86% 0.0 mm 199.00 W/m2
10:50 9.1 °C 6.7 °C 1000.9 hPa Calm   1.6 km/h 85% 0.0 mm 49.00 W/m2
10:55 9.2 °C 6.8 °C 1000.9 hPa Calm   4.8 km/h 85% 0.0 mm 100.00 W/m2
11:00 9.4 °C 6.8 °C 1000.9 hPa SSW 3.2 km/h 4.8 km/h 84% 0.0 mm 60.00 W/m2
11:05 9.6 °C 6.9 °C 1000.9 hPa SSW 1.4 km/h 8.0 km/h 83% 0.0 mm 118.00 W/m2
11:10 9.7 °C 7.0 °C 1000.6 hPa Calm     83% 0.0 mm 84.00 W/m2
11:15 9.9 °C 7.0 °C 1000.6 hPa Calm   1.6 km/h 82% 0.0 mm 134.00 W/m2
11:20 10.0 °C 7.1 °C 1000.6 hPa Calm     82% 0.0 mm 53.00 W/m2
11:25 10.2 °C 7.3 °C 1000.6 hPa SSW 1.4 km/h 1.6 km/h 82% 0.0 mm 56.00 W/m2
11:30 10.4 °C 7.5 °C 1000.6 hPa SSW 3.2 km/h 6.4 km/h 82% 0.0 mm 56.00 W/m2
11:35 10.6 °C 7.5 °C 1000.6 hPa South 1.4 km/h 6.4 km/h 81% 0.0 mm 65.00 W/m2
11:40 10.7 °C 7.4 °C 1000.6 hPa SW 3.2 km/h 6.4 km/h 80% 0.0 mm 54.00 W/m2
Westerhope, Newcastle upon Tyne, UK
Compliments of Weather Underground - 4 mb